createdAt,value
2023-03-22T00:01:23.804Z,100.00
2023-03-22T00:03:52.474Z,100.00
2023-03-22T00:06:20.459Z,100.00
2023-03-22T00:08:51.509Z,100.00
2023-03-22T00:11:21.877Z,100.00
2023-03-22T00:13:52.529Z,100.00
2023-03-22T00:16:21.769Z,100.00
2023-03-22T00:18:49.242Z,100.00
2023-03-22T00:21:17.286Z,100.00
2023-03-22T00:23:44.902Z,100.00
2023-03-22T00:26:14.066Z,100.00
2023-03-22T00:28:42.460Z,100.00
2023-03-22T00:31:10.980Z,100.00
2023-03-22T00:33:38.448Z,100.00
2023-03-22T00:36:09.727Z,100.00
2023-03-22T00:38:42.896Z,100.00
2023-03-22T00:41:23.993Z,100.00
2023-03-22T00:43:52.046Z,100.00
2023-03-22T00:46:21.581Z,100.00
2023-03-22T00:48:49.408Z,100.00
2023-03-22T00:51:18.169Z,100.00
2023-03-22T00:53:45.479Z,100.00
2023-03-22T00:56:14.414Z,100.00
2023-03-22T00:58:52.779Z,100.00
2023-03-22T01:01:20.742Z,100.00
2023-03-22T01:03:50.783Z,100.00
2023-03-22T01:06:18.705Z,100.00
2023-03-22T01:08:46.182Z,100.00
2023-03-22T01:11:13.419Z,100.00
2023-03-22T01:13:41.975Z,100.00
2023-03-22T01:16:10.671Z,100.00
2023-03-22T01:18:38.124Z,100.00
2023-03-22T01:21:06.391Z,100.00
2023-03-22T01:23:34.007Z,100.00
2023-03-22T01:26:01.695Z,100.00
2023-03-22T01:28:29.930Z,100.00
2023-03-22T01:31:02.994Z,100.00
2023-03-22T01:33:30.989Z,100.00
2023-03-22T01:35:58.788Z,100.00
2023-03-22T01:38:26.596Z,100.00
2023-03-22T01:40:57.792Z,100.00
2023-03-22T01:43:26.231Z,100.00
2023-03-22T01:45:54.952Z,100.00
2023-03-22T01:48:46.156Z,100.00
2023-03-22T01:51:25.360Z,100.00
2023-03-22T01:54:48.164Z,100.00
2023-03-22T01:57:45.689Z,100.00
2023-03-22T02:00:22.516Z,100.00
2023-03-22T02:03:15.607Z,100.00
2023-03-22T02:05:47.832Z,100.00
2023-03-22T02:08:16.254Z,100.00
2023-03-22T02:10:58.019Z,100.00
2023-03-22T02:14:09.227Z,100.00
2023-03-22T02:17:18.683Z,100.00
2023-03-22T02:20:24.686Z,100.00
2023-03-22T02:23:01.476Z,100.00
2023-03-22T02:25:54.932Z,100.00
2023-03-22T02:28:43.675Z,100.00
2023-03-22T02:31:48.024Z,100.00
2023-03-22T02:35:03.372Z,100.00
2023-03-22T02:37:58.410Z,100.00
2023-03-22T02:40:40.893Z,100.00
2023-03-22T02:43:38.695Z,100.00
2023-03-22T02:46:46.568Z,100.00
2023-03-22T02:49:35.976Z,100.00
2023-03-22T02:52:12.840Z,100.00
2023-03-22T02:54:53.680Z,100.00
2023-03-22T02:57:28.807Z,100.00
2023-03-22T02:59:58.308Z,100.00
2023-03-22T03:02:28.197Z,100.00
2023-03-22T03:04:57.113Z,100.00
2023-03-22T03:07:30.625Z,100.00
2023-03-22T03:09:58.702Z,100.00
2023-03-22T03:12:28.170Z,100.00
2023-03-22T03:14:57.505Z,100.00
2023-03-22T03:17:47.102Z,100.00
2023-03-22T03:20:30.142Z,100.00
2023-03-22T03:23:57.872Z,100.00
2023-03-22T03:26:46.311Z,100.00
2023-03-22T03:29:22.634Z,100.00
2023-03-22T03:31:52.590Z,100.00
2023-03-22T03:34:38.534Z,100.00
2023-03-22T03:37:14.610Z,100.00
2023-03-22T03:40:09.998Z,100.00
2023-03-22T03:42:50.331Z,100.00
2023-03-22T03:45:19.482Z,100.00
2023-03-22T03:47:55.459Z,100.00
2023-03-22T03:50:25.313Z,100.00
2023-03-22T03:52:54.463Z,100.00
2023-03-22T03:55:23.761Z,100.00
2023-03-22T03:57:51.079Z,100.00
2023-03-22T04:00:19.264Z,100.00
2023-03-22T04:03:14.103Z,100.00
2023-03-22T04:06:09.020Z,100.00
2023-03-22T04:08:38.951Z,100.00
2023-03-22T04:11:07.326Z,100.00
2023-03-22T04:13:35.308Z,100.00
2023-03-22T04:16:07.305Z,100.00
2023-03-22T04:18:36.970Z,99.91
2023-03-22T04:21:07.722Z,99.53
2023-03-22T04:23:46.733Z,100.00
2023-03-22T04:26:14.148Z,100.00
2023-03-22T04:29:03.190Z,100.00
2023-03-22T04:31:33.980Z,100.00
2023-03-22T04:34:08.513Z,100.00
2023-03-22T04:36:50.772Z,100.00
2023-03-22T04:39:24.703Z,100.00
2023-03-22T04:41:59.641Z,100.00
2023-03-22T04:44:27.602Z,100.00
2023-03-22T04:46:55.876Z,100.00
2023-03-22T04:49:23.292Z,100.00
2023-03-22T04:51:50.652Z,100.00
2023-03-22T04:54:24.290Z,100.00
2023-03-22T04:56:51.705Z,99.75
2023-03-22T04:59:21.965Z,100.00
2023-03-22T05:01:51.672Z,100.00
2023-03-22T05:04:23.059Z,100.00
2023-03-22T05:06:56.655Z,100.00
2023-03-22T05:09:31.599Z,100.00
2023-03-22T05:11:59.023Z,100.00
2023-03-22T05:14:46.454Z,100.00
2023-03-22T05:17:16.748Z,100.00
2023-03-22T05:19:44.875Z,100.00
2023-03-22T05:22:13.347Z,100.00
2023-03-22T05:24:49.189Z,100.00
2023-03-22T05:27:31.220Z,100.00
2023-03-22T05:30:10.608Z,100.00
2023-03-22T05:32:47.621Z,100.00
2023-03-22T05:35:14.993Z,98.96
2023-03-22T05:37:47.314Z,96.57
2023-03-22T05:40:17.004Z,97.43
2023-03-22T05:42:45.614Z,93.44
2023-03-22T05:45:21.474Z,93.95
2023-03-22T05:47:57.441Z,92.95
2023-03-22T05:50:25.999Z,91.92
2023-03-22T05:52:53.507Z,91.13
2023-03-22T05:55:39.338Z,91.32
2023-03-22T05:58:07.689Z,91.02
2023-03-22T06:00:38.878Z,91.21
2023-03-22T06:03:29.106Z,93.35
2023-03-22T06:06:10.793Z,91.46
2023-03-22T06:08:47.892Z,91.12
2023-03-22T06:11:15.526Z,90.98
2023-03-22T06:13:42.759Z,89.91
2023-03-22T06:16:11.482Z,89.96
2023-03-22T06:18:39.162Z,87.34
2023-03-22T06:21:10.827Z,85.50
2023-03-22T06:23:38.441Z,86.26
2023-03-22T06:26:06.661Z,87.80
2023-03-22T06:28:35.996Z,85.55
2023-03-22T06:31:11.219Z,87.43
2023-03-22T06:33:55.933Z,85.73
2023-03-22T06:36:32.405Z,84.89
2023-03-22T06:39:05.421Z,83.24
2023-03-22T06:41:33.269Z,85.91
2023-03-22T06:44:01.354Z,84.05
2023-03-22T06:46:48.993Z,83.44
2023-03-22T06:49:36.088Z,84.29
2023-03-22T06:52:04.213Z,81.36
2023-03-22T06:54:32.151Z,82.78
2023-03-22T06:56:59.681Z,82.65
2023-03-22T06:59:27.769Z,80.90
2023-03-22T07:01:55.134Z,81.90
2023-03-22T07:04:22.575Z,82.17
2023-03-22T07:06:50.839Z,82.83
2023-03-22T07:09:18.694Z,83.50
2023-03-22T07:11:48.631Z,81.34
2023-03-22T07:14:16.410Z,79.68
2023-03-22T07:16:57.031Z,80.54
2023-03-22T07:19:24.860Z,80.45
2023-03-22T07:21:52.249Z,80.75
2023-03-22T07:24:19.439Z,78.71
2023-03-22T07:26:47.064Z,78.80
2023-03-22T07:29:19.383Z,79.36
2023-03-22T07:31:47.054Z,78.08
2023-03-22T07:34:23.854Z,76.53
2023-03-22T07:37:03.106Z,77.35
2023-03-22T07:39:31.167Z,75.98
2023-03-22T07:41:58.880Z,76.40
2023-03-22T07:44:27.078Z,76.02
2023-03-22T07:47:13.152Z,75.88
2023-03-22T07:49:46.563Z,74.34
2023-03-22T07:52:18.186Z,69.83
2023-03-22T07:54:45.543Z,69.61
2023-03-22T07:57:13.940Z,72.01
2023-03-22T07:59:47.277Z,71.66
2023-03-22T08:02:16.138Z,68.16
2023-03-22T08:04:55.746Z,67.88
2023-03-22T08:07:37.849Z,64.85
2023-03-22T08:10:06.498Z,60.87
2023-03-22T08:12:35.482Z,58.35
2023-03-22T08:15:15.702Z,56.31
2023-03-22T08:17:43.522Z,57.10
2023-03-22T08:20:18.482Z,58.44
2023-03-22T08:22:51.294Z,61.08
2023-03-22T08:25:44.857Z,59.92
2023-03-22T08:28:14.560Z,61.26
2023-03-22T08:30:45.382Z,63.69
2023-03-22T08:33:14.083Z,66.00
2023-03-22T08:35:43.151Z,65.84
2023-03-22T08:38:10.432Z,66.43
2023-03-22T08:40:48.046Z,67.60
2023-03-22T08:43:19.434Z,68.32
2023-03-22T08:45:47.723Z,67.60
2023-03-22T08:48:17.185Z,66.02
2023-03-22T08:51:01.193Z,67.73
2023-03-22T08:53:37.483Z,68.85
2023-03-22T08:56:27.541Z,69.76
2023-03-22T08:59:10.230Z,69.10
2023-03-22T09:01:47.278Z,69.33
2023-03-22T09:04:14.875Z,70.39
2023-03-22T09:06:45.337Z,69.99
2023-03-22T09:09:13.141Z,70.42
2023-03-22T09:11:42.945Z,70.29
2023-03-22T09:14:10.871Z,70.42
2023-03-22T09:16:38.549Z,69.92
2023-03-22T09:19:06.849Z,70.39
2023-03-22T09:21:34.730Z,69.34
2023-03-22T09:24:14.495Z,69.04
2023-03-22T09:26:49.262Z,69.63
2023-03-22T09:29:19.583Z,69.95
2023-03-22T09:31:49.015Z,68.33
2023-03-22T09:34:19.353Z,68.59
2023-03-22T09:36:47.563Z,66.93
2023-03-22T09:39:17.905Z,67.15
2023-03-22T09:41:56.197Z,65.47
2023-03-22T09:44:32.350Z,66.53
2023-03-22T09:47:02.286Z,65.51
2023-03-22T09:49:52.861Z,64.59
2023-03-22T09:52:20.925Z,63.72
2023-03-22T09:54:48.283Z,63.54
2023-03-22T09:57:37.314Z,65.55
2023-03-22T10:00:22.293Z,67.42
2023-03-22T10:03:17.214Z,65.04
2023-03-22T10:06:03.043Z,63.33
2023-03-22T10:08:47.061Z,61.36
2023-03-22T10:12:05.247Z,61.73
2023-03-22T10:14:46.000Z,60.77
2023-03-22T10:17:19.117Z,59.23
2023-03-22T10:20:06.177Z,59.33
2023-03-22T10:22:42.786Z,57.68
2023-03-22T10:25:15.725Z,57.42
2023-03-22T10:27:44.022Z,57.26
2023-03-22T10:30:27.432Z,57.00
2023-03-22T10:33:05.098Z,55.69
2023-03-22T10:35:33.063Z,52.77
2023-03-22T10:38:05.163Z,50.96
2023-03-22T10:40:36.375Z,48.87
2023-03-22T10:43:20.083Z,49.98
2023-03-22T10:45:48.841Z,46.64
2023-03-22T10:48:35.892Z,42.88
2023-03-22T10:51:04.447Z,41.85
2023-03-22T10:53:49.255Z,42.24
2023-03-22T10:56:20.274Z,44.08
2023-03-22T10:58:51.922Z,44.01
2023-03-22T11:01:40.280Z,43.83
2023-03-22T11:04:13.048Z,41.04
2023-03-22T11:06:56.070Z,35.77
2023-03-22T11:09:24.761Z,32.26
2023-03-22T11:11:59.093Z,33.37
2023-03-22T11:14:33.526Z,33.50
2023-03-22T11:17:14.750Z,35.57
2023-03-22T11:19:53.915Z,35.96
2023-03-22T11:22:38.631Z,37.47
2023-03-22T11:25:30.883Z,39.08
2023-03-22T11:28:09.579Z,33.67
2023-03-22T11:30:37.984Z,31.07
2023-03-22T11:33:08.401Z,29.95
2023-03-22T11:35:39.499Z,29.83
2023-03-22T11:38:07.688Z,30.22
2023-03-22T11:40:36.969Z,28.66
2023-03-22T11:43:23.470Z,29.82
2023-03-22T11:45:57.126Z,28.85
2023-03-22T11:48:33.374Z,27.13
2023-03-22T11:51:07.138Z,27.69
2023-03-22T11:53:39.872Z,29.15
2023-03-22T11:56:12.608Z,29.59
2023-03-22T11:58:42.572Z,29.18
2023-03-22T12:01:26.223Z,29.80
2023-03-22T12:03:57.437Z,30.10
2023-03-22T12:06:33.648Z,31.13
2023-03-22T12:09:43.183Z,30.83
2023-03-22T12:12:19.159Z,35.18
2023-03-22T12:15:08.355Z,34.71
2023-03-22T12:17:45.258Z,34.67
2023-03-22T12:20:38.417Z,35.09
2023-03-22T12:23:20.213Z,36.21
2023-03-22T12:26:18.376Z,35.79
2023-03-22T12:29:05.408Z,35.08
2023-03-22T12:31:48.390Z,35.80
2023-03-22T12:34:25.991Z,36.24
2023-03-22T12:36:57.015Z,36.82
2023-03-22T12:39:39.144Z,37.28
2023-03-22T12:42:29.313Z,38.26
2023-03-22T12:45:11.207Z,39.18
2023-03-22T12:47:55.376Z,40.27
2023-03-22T12:50:36.126Z,42.18
2023-03-22T12:53:04.659Z,41.23
2023-03-22T12:55:37.059Z,41.64
2023-03-22T12:58:10.278Z,43.46
2023-03-22T13:00:54.165Z,40.82
2023-03-22T13:03:37.826Z,43.61
2023-03-22T13:06:28.086Z,43.41
2023-03-22T13:09:41.501Z,43.82
2023-03-22T13:12:17.516Z,43.47
2023-03-22T13:14:53.210Z,43.54
2023-03-22T13:17:23.688Z,45.34
2023-03-22T13:20:13.675Z,45.46
2023-03-22T13:22:43.721Z,45.44
2023-03-22T13:25:13.976Z,44.60
2023-03-22T13:28:18.742Z,45.28
2023-03-22T13:30:55.013Z,45.66
2023-03-22T13:33:32.164Z,44.80
2023-03-22T13:36:25.085Z,45.61
2023-03-22T13:39:07.994Z,46.06
2023-03-22T13:41:36.116Z,45.61
2023-03-22T13:44:26.710Z,46.04
2023-03-22T13:47:01.338Z,48.99
2023-03-22T13:49:56.531Z,46.58
2023-03-22T13:52:38.734Z,47.26
2023-03-22T13:55:41.614Z,47.98
2023-03-22T13:58:52.388Z,47.11
2023-03-22T14:01:48.009Z,48.43
2023-03-22T14:04:22.793Z,47.82
2023-03-22T14:06:55.151Z,47.08
2023-03-22T14:09:44.731Z,49.15
2023-03-22T14:13:03.956Z,48.80
2023-03-22T14:15:38.177Z,48.25
2023-03-22T14:18:37.258Z,47.62
2023-03-22T14:21:12.540Z,47.66
